Time;durP1;ratioP1;P1;durP2;ratioP2;P2;SDS_P1;SDS_P2;PMS_P1;PMS_P2;Temp;Humidity;BMP_temperature;BMP_pressure;BME280_temperature;BME280_humidity;BME280_pressure;Samples;Min_cycle;Max_cycle;Signal;HPM_P1;HPM_P2
2022/11/13 07:31:32;;;;;;;17.30;15.50;;;;;;;2.90;97.85;101287.56;5128009;27;20580;-68
2022/11/13 07:33:58;;;;;;;18.50;16.50;;;;;;;3.04;96.99;101284.34;5129261;28;20489;-68
2022/11/13 07:36:25;;;;;;;20.50;16.30;;;;;;;2.92;95.70;101279.59;5112987;28;20502;-70
2022/11/13 07:38:52;;;;;;;19.90;16.90;;;;;;;3.72;94.62;101284.78;5119467;28;20515;-70
2022/11/13 07:41:18;;;;;;;21.40;17.00;;;;;;;3.89;90.66;101278.72;5112754;28;20475;-70
2022/11/13 07:43:45;;;;;;;18.30;14.77;;;;;;;6.59;90.18;101269.88;5116589;28;20451;-70
2022/11/13 07:46:12;;;;;;;26.90;18.23;;;;;;;8.80;77.67;101271.09;5088316;28;20506;-70
2022/11/13 07:48:40;;;;;;;21.10;16.83;;;;;;;9.96;66.94;101263.84;5088484;28;20464;-70
2022/11/13 07:51:06;;;;;;;18.70;16.53;;;;;;;10.21;61.06;101266.53;5098597;28;20475;-70
2022/11/13 07:53:34;;;;;;;15.77;14.00;;;;;;;10.28;57.48;101268.66;5098842;28;21306;-70
2022/11/13 07:56:02;;;;;;;18.80;13.33;;;;;;;9.94;56.89;101256.91;5098327;28;20467;-71
2022/11/13 07:58:28;;;;;;;14.07;12.30;;;;;;;9.47;59.38;101256.69;5099256;28;20464;-71
2022/11/13 08:00:55;;;;;;;15.13;13.60;;;;;;;10.23;57.07;101262.78;5097815;28;20475;-71
2022/11/13 08:03:22;;;;;;;16.43;14.63;;;;;;;10.97;54.86;101257.28;5098929;28;20976;-71
2022/11/13 08:05:50;;;;;;;16.70;13.47;;;;;;;11.96;52.19;101269.13;5088455;28;20499;-71
2022/11/13 08:08:16;;;;;;;13.80;11.90;;;;;;;12.29;50.19;101271.81;5083265;28;20437;-71
2022/11/13 08:10:43;;;;;;;13.57;11.70;;;;;;;11.44;53.41;101263.41;5096556;28;20475;-71
2022/11/13 08:13:10;;;;;;;12.53;11.33;;;;;;;11.84;54.06;101265.56;5095114;28;20444;-71
2022/11/13 08:15:37;;;;;;;12.63;11.40;;;;;;;13.18;49.83;101270.53;5087853;28;20501;-71
2022/11/13 08:18:05;;;;;;;13.90;12.60;;;;;;;14.66;46.19;101268.16;5098673;28;20472;-75
2022/11/13 08:20:31;;;;;;;12.07;10.87;;;;;;;14.89;45.64;101267.84;5098209;28;20474;-74
2022/11/13 08:23:00;;;;;;;11.70;10.50;;;;;;;15.38;44.78;101271.31;5088079;28;20480;-74
2022/11/13 08:25:28;;;;;;;12.37;11.23;;;;;;;15.81;43.67;101267.19;5092482;28;20495;-74
2022/11/13 08:27:55;;;;;;;13.00;11.17;;;;;;;16.82;41.56;101259.91;5090757;28;20448;-74
2022/11/13 08:30:22;;;;;;;11.70;10.60;;;;;;;16.98;41.23;101264.59;5094739;28;20957;-73
2022/11/13 08:32:49;;;;;;;12.67;11.27;;;;;;;17.27;40.42;101262.47;5098670;28;20442;-73
2022/11/13 08:35:17;;;;;;;12.40;11.30;;;;;;;16.53;42.59;101261.03;5097668;28;20454;-73
2022/11/13 08:37:43;;;;;;;11.30;10.30;;;;;;;17.23;41.00;101257.53;5098270;28;20438;-73
2022/11/13 08:40:12;;;;;;;12.53;11.33;;;;;;;17.63;39.83;101256.03;5097758;28;20513;-71
2022/11/13 08:42:39;;;;;;;14.07;11.87;;;;;;;17.60;39.95;101259.94;5085931;28;20482;-73
2022/11/13 08:45:06;;;;;;;11.43;10.43;;;;;;;16.80;41.56;101254.66;5084252;28;20444;-72
2022/11/13 08:47:33;;;;;;;13.43;12.23;;;;;;;17.83;40.08;101248.53;5083462;28;20456;-72
2022/11/13 08:49:59;;;;;;;11.70;10.60;;;;;;;18.15;39.57;101249.66;5076515;28;20578;-72
2022/11/13 08:52:26;;;;;;;10.30;9.40;;;;;;;17.26;40.72;101249.94;5064157;28;20549;-72
2022/11/13 08:54:53;;;;;;;11.93;10.83;;;;;;;17.43;40.52;101241.91;5064639;28;21164;-72
2022/11/13 08:57:21;;;;;;;13.43;12.13;;;;;;;18.06;39.61;101241.50;5064592;28;20899;-72
2022/11/13 08:59:48;;;;;;;10.17;9.10;;;;;;;15.79;42.94;101249.44;5064078;28;21018;-72
2022/11/13 09:02:16;;;;;;;8.63;7.93;;;;;;;16.42;43.44;101245.88;5064517;28;20502;-73
2022/11/13 09:04:43;;;;;;;10.43;9.40;;;;;;;19.02;38.39;101243.81;5064709;28;20462;-73
2022/11/13 09:07:10;;;;;;;11.10;9.60;;;;;;;19.09;39.88;101234.78;5064367;28;20500;-72
2022/11/13 09:09:37;;;;;;;10.80;9.77;;;;;;;17.45;44.01;101242.63;5064657;28;20428;-70
2022/11/13 09:12:04;;;;;;;10.17;9.17;;;;;;;18.44;41.74;101231.09;5064006;28;20473;-69
2022/11/13 09:14:32;;;;;;;9.10;8.30;;;;;;;15.68;45.00;101239.69;5063933;28;20459;-69
2022/11/13 09:16:59;;;;;;;10.27;9.37;;;;;;;15.24;46.51;101231.34;5063184;28;20527;-69
2022/11/13 09:19:27;;;;;;;10.30;8.67;;;;;;;16.69;43.42;101223.34;5063597;28;20436;-71
2022/11/13 09:21:54;;;;;;;9.63;8.63;;;;;;;17.92;41.87;101223.22;5063350;28;21114;-71
2022/11/13 09:24:20;;;;;;;9.50;8.50;;;;;;;16.03;44.42;101227.31;5063774;28;20505;-71
2022/11/13 09:26:47;;;;;;;8.80;8.00;;;;;;;15.62;46.48;101218.69;5063541;28;20475;-71
2022/11/13 09:29:14;;;;;;;9.47;8.67;;;;;;;16.85;43.23;101217.25;5064170;28;21104;-71
2022/11/13 09:31:42;;;;;;;9.37;8.47;;;;;;;16.94;44.02;101210.03;5080043;28;20517;-70
2022/11/13 09:34:09;;;;;;;9.43;8.50;;;;;;;15.52;46.10;101216.06;5083890;28;21150;-71
2022/11/13 09:36:37;;;;;;;9.73;8.83;;;;;;;15.85;46.01;101212.94;5083119;28;20471;-70
2022/11/13 09:39:04;;;;;;;9.10;8.20;;;;;;;16.01;45.15;101207.72;5084141;28;20447;-70
2022/11/13 09:41:34;;;;;;;9.70;8.70;;;;;;;15.85;46.25;101208.41;5082773;28;21012;-71
2022/11/13 09:44:03;;;;;;;9.57;8.37;;;;;;;17.44;41.90;101206.59;5083432;28;20453;-70
2022/11/13 09:46:37;;;;;;;8.33;7.63;;;;;;;18.52;39.16;101197.78;5082916;28;20482;-70
2022/11/13 09:49:13;;;;;;;8.43;7.63;;;;;;;19.18;37.35;101197.66;5076342;28;20449;-71
2022/11/13 09:51:40;;;;;;;8.80;8.10;;;;;;;18.52;37.75;101194.19;5065318;28;20482;-71
2022/11/13 09:54:10;;;;;;;8.87;7.77;;;;;;;17.63;41.20;101199.25;5061559;28;20515;-71
2022/11/13 09:56:41;;;;;;;9.03;7.90;;;;;;;18.89;38.57;101190.16;5062243;28;20478;-70
2022/11/13 09:59:15;;;;;;;8.70;7.87;;;;;;;18.08;40.48;101184.53;5061947;28;20460;-70
2022/11/13 10:01:50;;;;;;;9.97;8.97;;;;;;;17.98;40.95;101181.97;5061680;28;20483;-71
2022/11/13 10:04:24;;;;;;;9.10;8.30;;;;;;;17.93;41.18;101178.91;5069304;28;20454;-71
2022/11/13 10:07:01;;;;;;;8.70;7.90;;;;;;;18.21;40.05;101175.91;5081421;28;20471;-70
2022/11/13 10:09:36;;;;;;;9.43;8.47;;;;;;;19.57;37.56;101181.41;5082001;28;20457;-70
2022/11/13 10:12:06;;;;;;;9.30;8.20;;;;;;;19.14;38.11;101175.47;5081416;28;20483;-70
2022/11/13 10:14:37;;;;;;;10.47;8.80;;;;;;;18.43;39.78;101180.63;5081331;28;20451;-70
2022/11/13 10:17:08;;;;;;;9.30;8.43;;;;;;;18.36;40.29;101173.38;5080866;28;20470;-70
2022/11/13 10:19:42;;;;;;;8.83;8.00;;;;;;;18.32;40.76;101172.88;5091339;28;20454;-70
2022/11/13 10:22:14;;;;;;;9.53;8.73;;;;;;;17.91;41.90;101180.94;5080581;28;20518;-72
2022/11/13 10:24:43;;;;;;;10.23;8.73;;;;;;;17.96;41.09;101173.16;5082879;28;20462;-70
2022/11/13 10:27:10;;;;;;;8.27;7.57;;;;;;;19.89;37.27;101176.03;5099816;28;20467;-70
2022/11/13 10:29:37;;;;;;;8.20;7.50;;;;;;;19.33;37.85;101171.53;5097477;28;20850;-70
2022/11/13 10:32:20;;;;;;;7.83;7.13;;;;;;;19.56;37.81;101165.31;5091624;28;20480;-70
2022/11/13 10:34:50;;;;;;;8.30;6.93;;;;;;;21.13;35.24;101167.69;5085573;28;20541;-70
2022/11/13 10:37:29;;;;;;;7.30;6.70;;;;;;;22.49;33.05;101152.47;5072592;28;20536;-71
2022/11/13 10:39:55;;;;;;;7.87;7.17;;;;;;;19.87;36.87;101168.06;5096234;28;20440;-71
2022/11/13 10:42:24;;;;;;;7.60;6.90;;;;;;;20.21;35.75;101158.66;5075743;28;20484;-70
2022/11/13 10:44:56;;;;;;;7.90;7.10;;;;;;;19.93;36.88;101156.50;5066305;28;20956;-70
2022/11/13 10:47:24;;;;;;;6.73;6.13;;;;;;;19.65;36.44;101149.84;5083931;28;20488;-70
2022/11/13 10:49:52;;;;;;;8.10;7.40;;;;;;;19.16;38.14;101142.78;5093180;28;20447;-70
2022/11/13 10:52:21;;;;;;;8.13;7.43;;;;;;;20.38;35.95;101143.09;5100964;28;20504;-70
2022/11/13 10:54:48;;;;;;;7.67;6.87;;;;;;;20.21;36.50;101136.94;5099839;28;20863;-70
2022/11/13 10:57:25;;;;;;;12.00;6.93;;;;;;;20.60;35.50;101130.47;5090909;28;20480;-70
2022/11/13 10:59:52;;;;;;;8.43;7.57;;;;;;;20.54;35.91;101125.78;5083130;28;20877;-70
2022/11/13 11:02:20;;;;;;;7.57;6.87;;;;;;;20.67;35.94;101122.47;5087113;28;20539;-71
2022/11/13 11:04:47;;;;;;;6.70;6.10;;;;;;;21.15;34.69;101119.38;5090045;28;20458;-71
2022/11/13 11:07:17;;;;;;;8.63;6.50;;;;;;;20.07;36.95;101116.03;5100593;28;20470;-70
2022/11/13 11:09:46;;;;;;;6.23;5.73;;;;;;;21.07;34.51;101112.16;5102156;28;20446;-70
2022/11/13 11:12:18;;;;;;;5.30;4.80;;;;;;;21.35;34.01;101104.16;5087446;28;20468;-71
2022/11/13 11:15:06;;;;;;;5.83;5.30;;;;;;;20.45;35.62;101095.16;5082382;28;20514;-71
2022/11/13 11:17:38;;;;;;;4.93;4.43;;;;;;;20.69;34.63;101087.78;5100547;28;20462;-71
2022/11/13 11:20:10;;;;;;;4.37;3.80;;;;;;;20.26;34.06;101079.38;5095244;28;20459;-70
2022/11/13 11:22:40;;;;;;;4.00;3.40;;;;;;;20.24;34.34;101074.13;5091474;28;20482;-71
2022/11/13 11:25:12;;;;;;;3.80;2.73;;;;;;;21.27;30.66;101071.63;5095574;28;20452;-70
2022/11/13 11:27:42;;;;;;;2.80;2.53;;;;;;;20.93;30.52;101066.81;5081889;28;20446;-70
2022/11/13 11:30:17;;;;;;;2.47;2.00;;;;;;;21.17;29.31;101063.75;5080513;28;21046;-70
2022/11/13 11:32:48;;;;;;;2.23;2.03;;;;;;;21.00;29.48;101054.97;5081730;28;20437;-70
2022/11/13 11:35:18;;;;;;;3.57;2.30;;;;;;;20.64;29.63;101055.75;5081884;28;20581;-70
2022/11/13 11:37:51;;;;;;;2.03;1.80;;;;;;;20.05;29.65;101055.63;5082332;28;20458;-70
2022/11/13 11:40:27;;;;;;;1.97;1.77;;;;;;;19.79;30.17;101046.03;5091628;28;21058;-70
2022/11/13 11:43:00;;;;;;;3.07;2.27;;;;;;;19.87;30.63;101047.81;5096496;28;20514;-70
2022/11/13 11:45:28;;;;;;;2.93;1.93;;;;;;;20.30;30.39;101048.09;5094978;28;20443;-70
2022/11/13 11:47:56;;;;;;;2.50;2.27;;;;;;;20.27;29.99;101043.03;5080503;28;20474;-70
2022/11/13 11:50:31;;;;;;;2.67;2.13;;;;;;;19.70;31.50;101044.34;5087732;28;20441;-70
2022/11/13 11:53:04;;;;;;;2.50;2.10;;;;;;;20.48;30.56;101039.59;5080664;28;20865;-70
2022/11/13 11:55:43;;;;;;;4.47;2.20;;;;;;;20.62;29.77;101036.09;5094760;28;20528;-70
2022/11/13 11:58:20;;;;;;;2.70;2.43;;;;;;;19.56;31.38;101037.84;5083411;28;20483;-70
2022/11/13 12:00:50;;;;;;;2.43;2.20;;;;;;;19.89;30.81;101027.63;5067432;28;20490;-70
2022/11/13 12:03:36;;;;;;;2.90;2.60;;;;;;;20.01;31.17;101030.72;5094573;28;20462;-70
2022/11/13 12:06:09;;;;;;;3.60;2.50;;;;;;;19.95;31.45;101020.63;5086025;28;20477;-70
2022/11/13 12:08:44;;;;;;;3.77;2.13;;;;;;;20.02;31.47;101028.88;5081230;28;20447;-70
2022/11/13 12:11:15;;;;;;;3.20;2.73;;;;;;;19.34;32.47;101020.56;5088766;28;20478;-70
2022/11/13 12:13:46;;;;;;;3.87;2.57;;;;;;;19.34;32.18;101017.84;5095858;28;20461;-69
2022/11/13 12:16:16;;;;;;;2.23;2.03;;;;;;;19.70;32.04;101019.94;5080724;28;20539;-71
2022/11/13 12:18:51;;;;;;;2.97;2.10;;;;;;;19.59;32.89;101025.81;5094438;28;20441;-70
2022/11/13 12:21:22;;;;;;;5.17;1.97;;;;;;;19.07;33.48;101030.84;5102497;28;20489;-71
2022/11/13 12:24:11;;;;;;;2.73;2.37;;;;;;;19.13;33.62;101021.16;5065096;28;20450;-71
2022/11/13 12:26:42;;;;;;;2.67;2.47;;;;;;;19.24;33.88;101011.81;5070202;28;20482;-71
2022/11/13 12:29:21;;;;;;;2.83;2.53;;;;;;;18.19;35.74;101018.25;5105496;28;20466;-70
2022/11/13 12:31:56;;;;;;;3.30;2.43;;;;;;;16.78;38.83;101002.81;5102536;28;20639;-71
2022/11/13 12:34:28;;;;;;;2.73;2.50;;;;;;;16.21;40.73;100994.44;5087969;28;20458;-70
2022/11/13 12:36:55;;;;;;;3.60;2.00;;;;;;;16.06;41.40;100997.72;5102791;28;20565;-71
2022/11/13 12:39:39;;;;;;;2.70;2.20;;;;;;;16.01;42.58;101002.75;5102311;28;20445;-70
2022/11/13 12:42:14;;;;;;;3.50;2.40;;;;;;;15.80;42.70;100986.91;5103866;28;20518;-71
2022/11/13 12:44:50;;;;;;;2.53;2.33;;;;;;;15.60;42.26;100987.03;5098507;28;20461;-70
2022/11/13 12:47:17;;;;;;;2.93;2.50;;;;;;;15.54;41.71;100987.69;5087607;28;20875;-72
2022/11/13 12:49:43;;;;;;;3.60;2.40;;;;;;;15.58;42.04;100989.06;5102803;28;20440;-71
2022/11/13 12:52:19;;;;;;;3.63;2.20;;;;;;;15.47;41.81;100991.13;5097038;28;20481;-72
2022/11/13 12:54:47;;;;;;;2.63;2.20;;;;;;;15.62;41.95;100976.97;5084762;28;20452;-70
2022/11/13 12:57:20;;;;;;;3.37;2.47;;;;;;;15.40;40.52;100977.44;5083207;28;20474;-69
2022/11/13 12:59:50;;;;;;;3.13;2.60;;;;;;;15.50;40.94;100975.53;5084800;28;20432;-69
2022/11/13 13:02:40;;;;;;;3.33;3.00;;;;;;;15.84;41.69;100979.34;5083748;28;20486;-71
2022/11/13 13:05:16;;;;;;;3.03;2.60;;;;;;;15.94;41.93;100975.56;5082673;28;20463;-69
2022/11/13 13:08:09;;;;;;;5.47;3.63;;;;;;;15.83;41.74;100965.00;5084857;28;20428;-70
2022/11/13 13:10:49;;;;;;;2.63;2.13;;;;;;;15.75;42.23;100962.28;5091109;28;20491;-71
2022/11/13 13:13:22;;;;;;;2.70;2.30;;;;;;;15.77;42.35;100955.72;5103874;28;20457;-71
2022/11/13 13:15:55;;;;;;;3.70;2.93;;;;;;;15.71;41.67;100950.06;5095103;28;20473;-71
2022/11/13 13:18:26;;;;;;;5.00;3.03;;;;;;;15.75;41.84;100948.78;5088518;28;20449;-70
2022/11/13 13:21:05;;;;;;;4.90;3.30;;;;;;;15.75;42.31;100946.09;5099652;28;20541;-69
2022/11/13 13:23:33;;;;;;;3.43;2.93;;;;;;;15.68;42.04;100948.53;5086724;28;20486;-70
2022/11/13 13:26:06;;;;;;;4.00;3.30;;;;;;;15.72;42.40;100939.13;5093398;28;20466;-70
2022/11/13 13:28:34;;;;;;;6.50;3.80;;;;;;;15.73;43.22;100940.00;5083864;28;20439;-69
2022/11/13 13:31:17;;;;;;;4.40;3.10;;;;;;;15.89;43.04;100933.91;5084543;28;20511;-69
2022/11/13 13:33:53;;;;;;;4.80;2.83;;;;;;;15.65;43.42;100929.16;5095911;28;20460;-69
2022/11/13 13:36:32;;;;;;;3.13;2.43;;;;;;;15.72;43.50;100927.50;5093783;28;20493;-69
2022/11/13 13:39:04;;;;;;;3.80;3.23;;;;;;;15.86;43.29;100920.72;5095129;28;21014;-69
2022/11/13 13:41:41;;;;;;;2.63;2.17;;;;;;;15.65;43.20;100918.34;5083781;28;20503;-69
2022/11/13 13:44:30;;;;;;;3.00;2.30;;;;;;;15.68;43.65;100910.81;5087100;28;20522;-69
2022/11/13 13:46:57;;;;;;;3.60;2.20;;;;;;;15.71;43.47;100905.09;5082676;28;20488;-70
2022/11/13 13:49:25;;;;;;;3.40;2.00;;;;;;;15.69;43.46;100907.09;5087298;28;20444;-69
2022/11/13 13:51:54;;;;;;;3.00;2.70;;;;;;;15.71;43.53;100901.53;5077089;28;20485;-69
2022/11/13 13:54:26;;;;;;;2.80;2.20;;;;;;;15.70;43.49;100897.16;5088849;28;20447;-69
2022/11/13 13:56:56;;;;;;;2.43;2.00;;;;;;;15.72;43.62;100896.00;5078655;28;20473;-69
2022/11/13 13:59:28;;;;;;;3.10;2.33;;;;;;;15.59;43.65;100890.19;5097283;28;20826;-69
2022/11/13 14:01:57;;;;;;;3.00;2.70;;;;;;;15.65;44.29;100888.72;5081536;28;20516;-69
2022/11/13 14:04:25;;;;;;;4.37;3.53;;;;;;;15.63;44.59;100891.56;5084510;28;20487;-69
2022/11/13 14:06:53;;;;;;;3.73;2.80;;;;;;;15.55;44.97;100894.19;5065161;28;20475;-69
2022/11/13 14:09:21;;;;;;;5.43;2.90;;;;;;;15.60;44.35;100889.16;5093661;28;20440;-69
2022/11/13 14:11:50;;;;;;;2.47;2.20;;;;;;;15.48;43.63;100890.44;5081295;28;20473;-69
2022/11/13 14:14:20;;;;;;;4.43;3.20;;;;;;;15.49;42.85;100886.75;5075709;28;21183;-69
2022/11/13 14:16:48;;;;;;;3.87;2.80;;;;;;;15.36;43.20;100889.84;5083434;28;20501;-69
2022/11/13 14:19:15;;;;;;;2.43;2.23;;;;;;;15.18;41.55;100884.47;5081017;28;20547;-69
2022/11/13 14:21:43;;;;;;;2.63;1.97;;;;;;;15.17;41.21;100882.78;5082726;28;20526;-69
2022/11/13 14:24:15;;;;;;;2.30;1.80;;;;;;;15.01;40.49;100889.69;5083783;28;20448;-69
2022/11/13 14:26:42;;;;;;;3.07;1.77;;;;;;;14.98;40.67;100883.78;5061296;28;20482;-68
2022/11/13 14:29:21;;;;;;;2.20;1.60;;;;;;;14.94;40.81;100885.94;5055876;28;20455;-69
2022/11/13 14:31:48;;;;;;;3.00;1.80;;;;;;;14.88;41.00;100886.56;5081591;28;20483;-69
2022/11/13 14:34:19;;;;;;;2.50;1.63;;;;;;;14.77;41.57;100879.56;5100673;28;21219;-68
2022/11/13 14:36:47;;;;;;;1.77;1.43;;;;;;;14.67;41.74;100882.31;5101647;28;20572;-68
2022/11/13 14:39:21;;;;;;;2.13;1.90;;;;;;;14.56;42.09;100881.63;5099734;28;20448;-69
2022/11/13 14:41:50;;;;;;;2.73;2.20;;;;;;;14.54;42.54;100879.09;5101139;28;21002;-70
2022/11/13 14:44:26;;;;;;;4.77;2.60;;;;;;;14.49;42.73;100879.56;5100693;28;20466;-69
2022/11/13 14:47:00;;;;;;;3.87;2.83;;;;;;;14.37;43.04;100874.53;5099715;28;20476;-69
2022/11/13 14:49:28;;;;;;;2.13;1.87;;;;;;;14.32;43.01;100873.13;5080803;28;20436;-69
2022/11/13 14:51:55;;;;;;;3.10;2.40;;;;;;;14.28;43.80;100873.56;5087038;28;20471;-69
2022/11/13 14:54:33;;;;;;;2.87;2.10;;;;;;;14.15;44.15;100870.38;5088146;28;20528;-68
2022/11/13 14:57:10;;;;;;;3.70;2.80;;;;;;;14.04;44.31;100868.72;5095656;28;20532;-69
2022/11/13 14:59:40;;;;;;;3.03;2.27;;;;;;;14.05;44.86;100867.75;5102028;28;20447;-69
2022/11/13 15:02:06;;;;;;;3.10;2.20;;;;;;;13.86;45.05;100863.28;5101023;28;20529;-69
2022/11/13 15:04:33;;;;;;;3.10;2.77;;;;;;;13.65;45.93;100867.03;5086340;28;20464;-69
2022/11/13 15:07:01;;;;;;;6.30;3.97;;;;;;;13.59;46.60;100867.59;5076569;28;20480;-69
2022/11/13 15:09:30;;;;;;;4.53;3.70;;;;;;;13.41;46.71;100861.28;5075324;28;20869;-70
2022/11/13 15:11:57;;;;;;;3.43;2.97;;;;;;;13.29;47.18;100863.25;5081834;28;20464;-69
2022/11/13 15:14:23;;;;;;;3.60;2.90;;;;;;;13.14;47.83;100863.69;5083320;28;20463;-69
2022/11/13 15:16:53;;;;;;;3.20;2.60;;;;;;;12.99;48.19;100860.56;5071289;28;20913;-69
2022/11/13 15:19:26;;;;;;;5.30;2.97;;;;;;;12.75;49.11;100860.16;5079561;28;20484;-69
2022/11/13 15:21:54;;;;;;;3.20;2.50;;;;;;;12.66;49.78;100850.25;5081713;28;20484;-70
2022/11/13 15:24:21;;;;;;;3.83;3.03;;;;;;;12.57;50.63;100860.84;5079930;28;20452;-69
2022/11/13 15:26:48;;;;;;;3.40;2.60;;;;;;;12.54;50.63;100853.06;5080523;28;20495;-69
2022/11/13 15:29:15;;;;;;;3.33;2.70;;;;;;;12.36;51.49;100857.38;5081249;28;20502;-69
2022/11/13 15:31:43;;;;;;;5.40;3.07;;;;;;;12.33;53.19;100855.84;5079780;28;20963;-69
2022/11/13 15:34:12;;;;;;;3.57;2.60;;;;;;;12.26;53.78;100856.53;5081099;28;20483;-70
2022/11/13 15:36:39;;;;;;;3.47;2.53;;;;;;;12.13;54.64;100854.06;5080619;28;20476;-69
2022/11/13 15:39:07;;;;;;;4.90;2.77;;;;;;;11.93;55.58;100856.69;5078284;28;20440;-69
2022/11/13 15:41:35;;;;;;;4.00;3.20;;;;;;;11.84;56.36;100862.84;5079229;28;20475;-69
2022/11/13 15:44:05;;;;;;;3.70;3.07;;;;;;;11.71;56.69;100859.50;5081087;28;20527;-69
2022/11/13 15:46:31;;;;;;;7.67;6.27;;;;;;;11.47;57.85;100857.97;5078939;28;21078;-69
2022/11/13 15:48:58;;;;;;;5.60;4.97;;;;;;;11.36;58.04;100860.72;5060866;28;20434;-69
2022/11/13 15:51:31;;;;;;;2.70;2.50;;;;;;;11.42;56.41;100855.69;5065529;28;20476;-69
2022/11/13 15:54:01;;;;;;;4.80;4.27;;;;;;;11.24;57.68;100855.41;5085775;28;21092;-69
2022/11/13 15:56:28;;;;;;;8.63;3.60;;;;;;;11.03;58.91;100857.25;5084443;28;20475;-70
2022/11/13 15:58:55;;;;;;;11.67;3.80;;;;;;;10.76;60.21;100857.69;5085580;28;20444;-70
2022/11/13 16:01:21;;;;;;;4.43;3.77;;;;;;;10.61;60.71;100858.00;5099562;28;20474;-70
2022/11/13 16:03:49;;;;;;;3.53;3.07;;;;;;;10.44;61.01;100853.19;5100085;28;20480;-70
2022/11/13 16:06:19;;;;;;;4.47;3.57;;;;;;;10.22;62.33;100860.22;5082659;28;20503;-69
2022/11/13 16:08:48;;;;;;;6.50;4.30;;;;;;;10.12;62.85;100859.25;5103950;28;20948;-68
2022/11/13 16:11:15;;;;;;;8.00;4.37;;;;;;;10.12;63.06;100856.56;5101520;28;20991;-69
2022/11/13 16:13:42;;;;;;;5.00;4.27;;;;;;;10.16;62.83;100855.38;5096084;28;20463;-69
2022/11/13 16:16:11;;;;;;;7.33;5.30;;;;;;;10.11;62.86;100845.06;5102147;28;20463;-69
2022/11/13 16:18:38;;;;;;;7.53;4.53;;;;;;;10.20;63.22;100848.81;5079988;28;20453;-69
2022/11/13 16:21:05;;;;;;;5.93;4.57;;;;;;;9.91;65.28;100851.13;5074345;28;20480;-69
2022/11/13 16:23:32;;;;;;;10.00;5.53;;;;;;;9.64;66.97;100854.16;5081358;28;20486;-69
2022/11/13 16:26:03;;;;;;;8.90;5.90;;;;;;;9.46;68.04;100843.94;5098662;28;20537;-69
2022/11/13 16:28:30;;;;;;;8.73;7.30;;;;;;;9.38;68.33;100843.69;5095736;28;20442;-69
2022/11/13 16:30:57;;;;;;;10.33;8.40;;;;;;;9.44;68.43;100843.19;5101207;28;20475;-70
2022/11/13 16:33:24;;;;;;;9.70;7.53;;;;;;;9.28;68.75;100840.88;5086324;28;20533;-69
2022/11/13 16:35:51;;;;;;;11.70;8.70;;;;;;;9.28;68.79;100837.34;5098928;28;20471;-69
2022/11/13 16:38:17;;;;;;;16.40;9.43;;;;;;;9.17;69.15;100836.34;5082227;28;20851;-69
2022/11/13 16:40:45;;;;;;;11.70;8.20;;;;;;;8.99;70.14;100827.06;5065926;28;20477;-69
2022/11/13 16:43:13;;;;;;;14.90;9.40;;;;;;;8.78;71.00;100840.22;5104282;28;20479;-69
2022/11/13 16:45:40;;;;;;;12.60;9.57;;;;;;;8.69;71.79;100846.22;5091883;28;20595;-69
2022/11/13 16:48:12;;;;;;;13.63;10.30;;;;;;;8.64;72.20;100844.75;5079100;28;20950;-69
2022/11/13 16:50:39;;;;;;;16.67;12.57;;;;;;;8.40;73.51;100839.41;5094957;28;20479;-69
2022/11/13 16:53:06;;;;;;;18.10;12.40;;;;;;;8.33;74.50;100838.13;5103741;28;20438;-69
2022/11/13 16:55:35;;;;;;;19.90;14.37;;;;;;;8.04;75.86;100837.59;5103250;28;20459;-69
2022/11/13 16:58:02;;;;;;;16.63;13.47;;;;;;;7.96;77.18;100837.28;5104192;28;20479;-69
2022/11/13 17:00:31;;;;;;;19.13;15.00;;;;;;;7.78;78.29;100834.94;5094471;28;20463;-69
2022/11/13 17:02:57;;;;;;;20.73;16.53;;;;;;;7.64;79.06;100846.56;5104176;28;20472;-69
2022/11/13 17:05:24;;;;;;;22.90;16.50;;;;;;;7.63;79.42;100842.19;5097786;28;20467;-71
2022/11/13 17:07:57;;;;;;;21.40;16.90;;;;;;;7.48;80.36;100851.22;5090101;28;20448;-71
2022/11/13 17:10:24;;;;;;;22.23;16.20;;;;;;;7.49;81.03;100842.31;5099376;28;20467;-73
2022/11/13 17:12:51;;;;;;;22.10;17.00;;;;;;;7.35;81.54;100841.44;5076039;28;20459;-69
2022/11/13 17:15:18;;;;;;;27.07;19.10;;;;;;;7.22;82.66;100831.75;5075590;28;20475;-69
2022/11/13 17:17:46;;;;;;;23.37;16.70;;;;;;;7.29;82.46;100836.56;5076238;28;20444;-69
2022/11/13 17:20:16;;;;;;;23.87;19.50;;;;;;;7.22;83.17;100831.75;5087944;28;20474;-69
2022/11/13 17:22:47;;;;;;;25.57;18.53;;;;;;;7.10;83.21;100826.31;5082857;28;20506;-69
2022/11/13 17:25:15;;;;;;;26.50;19.33;;;;;;;6.98;84.09;100829.81;5071041;28;20469;-69
2022/11/13 17:27:41;;;;;;;26.57;19.50;;;;;;;6.86;84.56;100817.34;5077513;28;20981;-69
2022/11/13 17:30:10;;;;;;;27.13;19.93;;;;;;;6.84;84.94;100821.88;5079699;28;20496;-69
2022/11/13 17:32:36;;;;;;;28.57;19.83;;;;;;;6.83;85.10;100822.84;5080607;28;20461;-69
2022/11/13 17:35:05;;;;;;;30.50;20.93;;;;;;;6.77;85.50;100821.44;5082796;28;20463;-69
2022/11/13 17:37:32;;;;;;;25.97;20.20;;;;;;;6.74;85.64;100822.50;5091815;28;20461;-69
2022/11/13 17:39:59;;;;;;;27.30;20.13;;;;;;;6.71;85.67;100817.38;5083241;28;20448;-69
2022/11/13 17:42:27;;;;;;;28.73;20.23;;;;;;;6.52;86.13;100815.09;5086501;28;20501;-69
2022/11/13 17:44:54;;;;;;;26.63;20.10;;;;;;;6.56;86.81;100823.72;5096350;28;20468;-69
2022/11/13 17:47:20;;;;;;;27.80;21.10;;;;;;;6.50;86.60;100824.13;5076643;28;20485;-70
2022/11/13 17:49:47;;;;;;;28.03;21.10;;;;;;;6.32;87.27;100831.47;5079636;28;20447;-69
2022/11/13 17:52:15;;;;;;;35.57;22.97;;;;;;;6.27;87.68;100821.16;5084939;28;20483;-70
2022/11/13 17:54:42;;;;;;;31.17;20.63;;;;;;;6.36;87.50;100823.22;5081758;28;20854;-69
2022/11/13 17:57:10;;;;;;;32.53;20.67;;;;;;;6.25;88.09;100828.38;5086711;28;20534;-69
2022/11/13 17:59:37;;;;;;;27.40;20.40;;;;;;;6.22;87.91;100824.09;5074354;28;20460;-69
2022/11/13 18:02:03;;;;;;;33.60;21.90;;;;;;;6.11;87.80;100818.66;5081391;28;20471;-69
2022/11/13 18:04:30;;;;;;;31.50;21.20;;;;;;;6.14;88.53;100814.94;5082115;28;20489;-69
2022/11/13 18:06:57;;;;;;;34.73;22.20;;;;;;;6.12;88.05;100825.66;5081177;28;20476;-69
2022/11/13 18:09:26;;;;;;;30.30;20.13;;;;;;;6.09;88.20;100828.47;5082672;28;20445;-69
2022/11/13 18:11:53;;;;;;;34.40;22.33;;;;;;;6.08;87.94;100831.25;5071968;28;21016;-69
2022/11/13 18:14:19;;;;;;;40.67;28.00;;;;;;;6.03;88.27;100835.03;5066519;28;20448;-69
2022/11/13 18:16:46;;;;;;;29.80;20.67;;;;;;;5.93;88.41;100841.00;5080071;28;20476;-69
2022/11/13 18:19:13;;;;;;;33.10;23.57;;;;;;;5.87;88.71;100838.72;5075925;28;20985;-69
2022/11/13 18:21:40;;;;;;;55.20;31.40;;;;;;;5.79;88.92;100836.56;5077903;28;20529;-69
2022/11/13 18:24:09;;;;;;;31.57;23.37;;;;;;;5.66;89.02;100829.34;5075671;28;20485;-69
2022/11/13 18:26:38;;;;;;;36.67;22.13;;;;;;;5.60;88.91;100820.91;5067768;28;20481;-69
2022/11/13 18:29:05;;;;;;;34.47;22.90;;;;;;;5.40;89.54;100824.78;5079306;28;20471;-67
2022/11/13 18:31:32;;;;;;;34.13;20.27;;;;;;;5.33;90.16;100816.38;5059268;28;20577;-68
2022/11/13 18:34:00;;;;;;;35.50;23.00;;;;;;;5.31;91.31;100820.03;5072579;28;20461;-69
2022/11/13 18:36:27;;;;;;;36.30;25.03;;;;;;;5.30;91.51;100813.06;5065584;28;21027;-68
2022/11/13 18:38:54;;;;;;;32.87;22.60;;;;;;;5.27;91.38;100816.72;5062232;28;20454;-69
2022/11/13 18:41:22;;;;;;;36.70;23.07;;;;;;;5.24;91.57;100817.78;5057745;28;20497;-69
2022/11/13 18:43:51;;;;;;;37.40;22.90;;;;;;;5.20;91.00;100812.75;5061357;28;20493;-68
2022/11/13 18:46:19;;;;;;;31.17;21.10;;;;;;;5.06;91.09;100813.56;5060635;28;20481;-68
2022/11/13 18:48:47;;;;;;;31.93;22.67;;;;;;;4.99;91.74;100807.78;5061186;28;20466;-68
2022/11/13 18:51:15;;;;;;;38.73;25.13;;;;;;;4.96;92.20;100807.94;5060404;28;20481;-69
2022/11/13 18:53:47;;;;;;;37.90;23.10;;;;;;;5.01;92.61;100810.34;5062063;28;20446;-68
2022/11/13 18:56:15;;;;;;;34.37;21.70;;;;;;;5.01;92.73;100811.19;5060943;28;20483;-68
2022/11/13 18:58:44;;;;;;;40.50;23.67;;;;;;;4.98;93.17;100819.34;5061862;28;20449;-74
2022/11/13 19:01:14;;;;;;;34.87;26.90;;;;;;;4.95;93.28;100824.81;5063572;28;20773;-74
2022/11/13 19:03:41;;;;;;;223.30;153.07;;;;;;;4.92;93.53;100835.59;5060240;28;20514;-73